createdAt,value
2023-01-21T00:00:59.897Z,11.30
2023-01-21T00:03:27.043Z,12.80
2023-01-21T00:05:53.941Z,10.40
2023-01-21T00:08:21.186Z,11.50
2023-01-21T00:10:48.064Z,9.60
2023-01-21T00:13:15.174Z,10.30
2023-01-21T00:15:42.342Z,10.30
2023-01-21T00:18:09.421Z,10.90
2023-01-21T00:20:36.832Z,10.30
2023-01-21T00:23:04.910Z,11.30
2023-01-21T00:25:32.214Z,10.80
2023-01-21T00:28:00.162Z,11.30
2023-01-21T00:30:27.125Z,11.60
2023-01-21T00:32:54.406Z,11.50
2023-01-21T00:35:21.198Z,11.40
2023-01-21T00:37:51.251Z,11.30
2023-01-21T00:40:19.232Z,10.70
2023-01-21T00:42:46.233Z,10.50
2023-01-21T00:45:13.088Z,9.60
2023-01-21T00:47:40.731Z,9.30
2023-01-21T00:50:09.072Z,10.50
2023-01-21T00:52:36.618Z,11.10
2023-01-21T00:55:04.141Z,10.60
2023-01-21T00:57:32.032Z,10.90
2023-01-21T00:59:59.407Z,10.30
2023-01-21T01:02:28.246Z,11.70
2023-01-21T01:04:55.417Z,11.40
2023-01-21T01:07:22.416Z,11.60
2023-01-21T01:09:49.428Z,12.10
2023-01-21T01:18:20.305Z,11.60
2023-01-21T01:20:47.465Z,13.40
2023-01-21T01:23:14.396Z,9.50
2023-01-21T01:25:41.573Z,10.70
2023-01-21T01:28:08.718Z,9.60
2023-01-21T01:30:37.115Z,10.50
2023-01-21T01:33:04.025Z,10.20
2023-01-21T01:35:32.863Z,11.80
2023-01-21T01:38:01.977Z,11.40
2023-01-21T01:40:33.087Z,11.00
2023-01-21T01:42:59.963Z,11.60
2023-01-21T01:45:27.349Z,11.60
2023-01-21T01:48:00.113Z,12.50
2023-01-21T01:50:29.192Z,13.10
2023-01-21T01:52:56.025Z,12.80
2023-01-21T01:55:23.832Z,12.80
2023-01-21T01:57:52.487Z,12.50
2023-01-21T02:00:19.976Z,11.90
2023-01-21T02:03:07.187Z,11.70
2023-01-21T02:05:34.443Z,10.10
2023-01-21T02:16:13.947Z,11.10
2023-01-21T02:18:59.901Z,11.30
2023-01-21T02:21:26.978Z,11.00
2023-01-21T02:24:31.882Z,11.60
2023-01-21T02:27:31.153Z,10.70
2023-01-21T02:30:17.519Z,10.70
2023-01-21T02:33:21.261Z,11.30
2023-01-21T02:36:00.864Z,11.50
2023-01-21T02:38:48.894Z,9.70
2023-01-21T02:41:30.871Z,10.60
2023-01-21T02:44:04.392Z,10.10
2023-01-21T02:46:50.981Z,10.80
2023-01-21T02:49:27.479Z,11.80
2023-01-21T02:51:54.300Z,11.20
2023-01-21T02:54:39.655Z,11.90
2023-01-21T02:57:09.851Z,11.10
2023-01-21T02:59:37.040Z,11.40
2023-01-21T03:02:12.911Z,12.40
2023-01-21T03:04:55.343Z,13.60
2023-01-21T03:07:34.109Z,16.10
2023-01-21T03:10:07.311Z,23.40
2023-01-21T03:12:41.566Z,14.80
2023-01-21T03:15:48.329Z,13.40
2023-01-21T03:18:18.803Z,13.90
2023-01-21T03:20:48.114Z,12.30
2023-01-21T03:23:18.030Z,11.10
2023-01-21T03:25:45.617Z,12.30
2023-01-21T03:28:13.850Z,10.40
2023-01-21T03:30:41.551Z,11.50
2023-01-21T03:33:09.822Z,11.30
2023-01-21T03:35:46.754Z,11.70
2023-01-21T03:38:35.909Z,12.20
2023-01-21T03:41:10.719Z,12.70
2023-01-21T03:43:37.535Z,12.50
2023-01-21T03:46:09.135Z,12.80
2023-01-21T03:48:52.167Z,10.60
2023-01-21T03:51:21.581Z,9.60
2023-01-21T03:53:58.163Z,9.90
2023-01-21T03:56:25.503Z,9.90
2023-01-21T03:58:52.432Z,11.00
2023-01-21T04:01:19.856Z,11.10
2023-01-21T04:03:46.766Z,11.00
2023-01-21T04:06:16.809Z,11.70
2023-01-21T04:08:44.139Z,11.60
2023-01-21T04:11:11.015Z,12.00
2023-01-21T04:13:38.106Z,12.70
2023-01-21T04:16:05.612Z,11.70
2023-01-21T04:18:34.574Z,10.20
2023-01-21T04:21:01.608Z,10.70
2023-01-21T04:23:28.698Z,10.90
2023-01-21T04:25:55.624Z,10.90
2023-01-21T04:28:23.439Z,9.00
2023-01-21T04:30:50.733Z,9.40
2023-01-21T04:33:17.787Z,10.00
2023-01-21T04:35:46.542Z,11.10
2023-01-21T04:38:13.993Z,10.10
2023-01-21T04:40:41.019Z,10.00
2023-01-21T04:43:07.970Z,10.60
2023-01-21T04:45:35.323Z,10.50
2023-01-21T04:48:02.169Z,9.40
2023-01-21T04:50:29.591Z,11.00
2023-01-21T04:52:56.858Z,9.90
2023-01-21T04:55:26.244Z,10.50
2023-01-21T04:57:53.379Z,10.20
2023-01-21T05:00:23.184Z,9.50
2023-01-21T05:02:50.015Z,10.20
2023-01-21T05:05:16.945Z,8.60
2023-01-21T05:07:45.004Z,8.20
2023-01-21T05:10:16.726Z,9.10
2023-01-21T05:12:43.697Z,9.30
2023-01-21T05:15:11.135Z,9.50
2023-01-21T05:17:38.122Z,9.90
2023-01-21T05:20:05.753Z,9.20
2023-01-21T05:22:32.720Z,10.50
2023-01-21T05:25:00.649Z,10.00
2023-01-21T05:27:28.124Z,11.40
2023-01-21T05:29:57.258Z,11.80
2023-01-21T05:32:24.289Z,11.00
2023-01-21T05:34:51.074Z,12.00
2023-01-21T05:37:18.183Z,9.70
2023-01-21T05:39:45.565Z,9.30
2023-01-21T05:42:12.477Z,8.70
2023-01-21T05:44:39.501Z,8.50
2023-01-21T05:47:07.721Z,9.90
2023-01-21T05:49:37.930Z,9.90
2023-01-21T05:52:05.187Z,9.90
2023-01-21T05:54:32.125Z,9.80
2023-01-21T05:56:59.057Z,9.90
2023-01-21T05:59:26.516Z,9.70
2023-01-21T06:01:53.507Z,10.00
2023-01-21T06:04:23.737Z,10.40
2023-01-21T06:06:51.127Z,10.30
2023-01-21T06:09:18.308Z,9.30
2023-01-21T06:11:45.230Z,10.30
2023-01-21T06:14:13.898Z,10.40
2023-01-21T06:16:41.668Z,10.40
2023-01-21T06:19:08.825Z,9.10
2023-01-21T06:21:36.789Z,7.30
2023-01-21T06:24:03.719Z,8.40
2023-01-21T06:26:30.602Z,9.30
2023-01-21T06:28:57.703Z,9.60
2023-01-21T06:31:24.845Z,9.80
2023-01-21T06:33:51.864Z,8.90
2023-01-21T06:36:18.699Z,9.10
2023-01-21T06:38:45.607Z,9.30
2023-01-21T06:41:12.620Z,10.10
2023-01-21T06:43:39.733Z,11.20
2023-01-21T06:46:06.934Z,10.60
2023-01-21T06:48:34.279Z,11.50
2023-01-21T06:51:01.260Z,10.10
2023-01-21T06:53:28.292Z,10.20
2023-01-21T06:55:55.401Z,8.00
2023-01-21T06:58:22.599Z,8.60
2023-01-21T07:00:49.448Z,9.00
2023-01-21T07:03:16.374Z,9.80
2023-01-21T07:05:43.522Z,9.90
2023-01-21T07:08:10.666Z,11.60
2023-01-21T07:18:21.114Z,10.70
2023-01-21T07:20:48.254Z,12.10
2023-01-21T07:23:15.388Z,11.50
2023-01-21T07:25:43.327Z,11.90
2023-01-21T07:28:10.383Z,11.60
2023-01-21T07:30:39.973Z,9.80
2023-01-21T07:33:08.075Z,8.70
2023-01-21T07:35:35.087Z,7.40
2023-01-21T07:38:02.092Z,7.60
2023-01-21T07:40:29.465Z,13.10
2023-01-21T07:42:56.880Z,17.00
2023-01-21T07:45:25.308Z,12.00
2023-01-21T07:47:52.500Z,11.30
2023-01-21T07:50:19.677Z,19.00
2023-01-21T07:52:48.268Z,10.30
2023-01-21T07:55:15.640Z,9.70
2023-01-21T07:57:42.811Z,9.80
2023-01-21T08:00:10.861Z,9.40
2023-01-21T08:02:41.707Z,9.40
2023-01-21T08:05:09.974Z,9.10
2023-01-21T08:07:36.882Z,9.00
2023-01-21T08:10:03.998Z,8.20
2023-01-21T08:12:31.533Z,8.90
2023-01-21T08:14:59.390Z,7.70
2023-01-21T08:17:27.030Z,7.80
2023-01-21T08:19:54.037Z,7.40
2023-01-21T08:22:20.965Z,9.30
2023-01-21T08:24:47.961Z,8.30
2023-01-21T08:27:19.077Z,8.30
2023-01-21T08:29:48.747Z,7.80
2023-01-21T08:32:15.619Z,9.40
2023-01-21T08:34:46.652Z,8.40
2023-01-21T08:37:13.986Z,9.60
2023-01-21T08:39:40.862Z,9.70
2023-01-21T08:42:07.661Z,10.10
2023-01-21T08:44:38.197Z,10.40
2023-01-21T08:47:04.963Z,10.80
2023-01-21T08:49:31.804Z,16.80
2023-01-21T08:51:59.315Z,10.00
2023-01-21T08:54:26.514Z,7.50
2023-01-21T08:56:53.538Z,8.10
2023-01-21T08:59:28.960Z,8.30
2023-01-21T09:01:56.649Z,10.50
2023-01-21T09:04:23.597Z,10.00
2023-01-21T09:06:50.838Z,9.80
2023-01-21T09:09:17.767Z,9.20
2023-01-21T09:11:44.890Z,10.10
2023-01-21T09:14:12.087Z,11.90
2023-01-21T09:16:39.304Z,11.40
2023-01-21T09:19:06.706Z,10.80
2023-01-21T09:21:38.035Z,10.10
2023-01-21T09:24:05.612Z,9.50
2023-01-21T09:26:33.161Z,9.40
2023-01-21T09:29:01.199Z,9.20
2023-01-21T09:31:29.405Z,9.00
2023-01-21T09:34:02.453Z,7.60
2023-01-21T09:36:31.066Z,6.50
2023-01-21T09:38:57.846Z,7.40
2023-01-21T09:41:30.493Z,8.60
2023-01-21T09:44:09.745Z,8.60
2023-01-21T09:46:44.893Z,8.90
2023-01-21T09:49:21.750Z,9.50
2023-01-21T09:51:52.648Z,11.20
2023-01-21T09:54:26.701Z,12.90
2023-01-21T09:57:12.600Z,11.80
2023-01-21T14:10:07.470Z,13.10
2023-01-21T14:19:04.935Z,10.40
2023-01-21T14:21:55.321Z,9.90
2023-01-21T14:24:21.859Z,12.20
2023-01-21T14:27:23.819Z,15.60
2023-01-21T14:32:40.004Z,13.70
2023-01-21T14:35:18.370Z,12.80
2023-01-21T14:37:52.861Z,11.90
2023-01-21T14:40:21.927Z,12.60
2023-01-21T14:45:19.721Z,12.30
2023-01-21T14:47:57.433Z,12.40
2023-01-21T14:50:52.414Z,11.50
2023-01-21T14:53:26.115Z,12.30
2023-01-21T14:56:26.483Z,12.40
2023-01-21T14:58:53.810Z,10.40
2023-01-21T15:01:31.561Z,10.40
2023-01-21T15:03:59.095Z,10.90
2023-01-21T15:06:25.532Z,10.60
2023-01-21T15:08:54.693Z,11.30
2023-01-21T15:11:39.928Z,11.70
2023-01-21T15:14:14.351Z,7.80
2023-01-21T15:16:41.830Z,7.20
2023-01-21T15:19:08.013Z,9.00
2023-01-21T15:21:44.468Z,8.40
2023-01-21T15:24:13.628Z,8.50
2023-01-21T15:26:41.600Z,9.20
2023-01-21T15:29:33.217Z,8.80
2023-01-21T15:32:35.400Z,8.00
2023-01-21T15:35:10.311Z,10.90
2023-01-21T15:37:37.979Z,9.70
2023-01-21T15:40:24.113Z,8.80
2023-01-21T15:42:58.954Z,10.00
2023-01-21T15:45:29.235Z,13.90
2023-01-21T15:48:13.941Z,12.90
2023-01-21T15:51:21.717Z,11.00
2023-01-21T15:54:11.279Z,7.70
2023-01-21T15:56:51.601Z,7.90
2023-01-21T15:59:35.605Z,8.20
2023-01-21T16:02:25.232Z,8.80
2023-01-21T16:05:16.175Z,9.40
2023-01-21T16:08:09.293Z,19.00
2023-01-21T16:10:57.989Z,21.20
2023-01-21T16:13:33.446Z,24.20
2023-01-21T16:16:24.520Z,17.70
2023-01-21T16:18:54.946Z,11.10
2023-01-21T16:21:27.277Z,11.00
2023-01-21T16:23:53.488Z,12.30
2023-01-21T16:26:26.898Z,9.40
2023-01-21T16:28:53.926Z,10.60
2023-01-21T16:31:20.648Z,10.40
2023-01-21T16:33:48.942Z,10.40
2023-01-21T16:36:15.264Z,10.00
2023-01-21T16:38:42.628Z,9.70
2023-01-21T16:41:14.863Z,8.90
2023-01-21T16:43:47.624Z,9.30
2023-01-21T16:46:15.350Z,8.60
2023-01-21T16:48:41.609Z,9.10
2023-01-21T16:51:22.874Z,8.90
2023-01-21T16:53:52.115Z,9.40
2023-01-21T16:56:28.272Z,10.00
2023-01-21T16:58:55.546Z,10.40
2023-01-21T17:01:24.446Z,10.70
2023-01-21T17:03:50.801Z,7.80
2023-01-21T17:06:22.720Z,8.90
2023-01-21T17:08:55.782Z,7.10
2023-01-21T17:11:22.102Z,7.20
2023-01-21T17:13:48.432Z,9.00
2023-01-21T17:16:24.442Z,8.90
2023-01-21T17:18:56.743Z,10.90
2023-01-21T17:21:33.149Z,10.80
2023-01-21T17:24:01.587Z,9.00
2023-01-21T17:26:39.428Z,9.40
2023-01-21T17:29:31.234Z,9.50
2023-01-21T17:32:01.109Z,8.40
2023-01-21T17:34:34.722Z,8.10
2023-01-21T17:37:00.881Z,8.60
2023-01-21T17:39:45.622Z,9.30
2023-01-21T17:42:16.315Z,7.50
2023-01-21T17:44:51.190Z,7.00
2023-01-21T17:47:54.490Z,8.30
2023-01-21T17:50:30.719Z,8.20
2023-01-21T21:34:36.584Z,13.80
2023-01-21T21:37:04.452Z,14.70
2023-01-21T21:39:31.381Z,10.20
2023-01-21T21:42:17.026Z,11.20
2023-01-21T21:44:44.131Z,10.70
2023-01-21T21:47:40.454Z,11.70
2023-01-21T21:50:07.725Z,11.90
2023-01-21T21:52:34.505Z,10.80
2023-01-21T21:55:01.328Z,10.80
2023-01-21T21:57:28.361Z,9.00
2023-01-21T21:59:55.189Z,10.10
2023-01-21T22:02:22.117Z,11.70
2023-01-21T22:04:49.781Z,10.10
2023-01-21T22:07:16.838Z,9.50
2023-01-21T22:09:44.174Z,12.00
2023-01-21T22:12:11.309Z,12.30
2023-01-21T22:14:38.156Z,12.90
2023-01-21T22:17:05.328Z,9.20
2023-01-21T22:19:33.229Z,7.60
2023-01-21T22:22:00.327Z,7.50
2023-01-21T22:24:28.095Z,7.50
2023-01-21T22:26:55.056Z,8.80
2023-01-21T22:29:22.092Z,8.80
2023-01-21T22:31:51.640Z,8.90
2023-01-21T22:34:18.857Z,9.00
2023-01-21T22:36:47.937Z,8.40
2023-01-21T22:39:15.320Z,9.20
2023-01-21T22:41:43.057Z,8.50
2023-01-21T22:44:09.827Z,8.70
2023-01-21T22:46:38.464Z,8.90
2023-01-21T22:49:05.290Z,9.80
2023-01-21T22:51:32.532Z,10.70
2023-01-21T22:54:02.321Z,10.00
2023-01-21T22:56:50.453Z,10.50
2023-01-21T22:59:16.527Z,9.60
2023-01-21T23:01:45.818Z,9.10
2023-01-21T23:04:12.791Z,9.50
2023-01-21T23:06:39.848Z,9.20
2023-01-21T23:09:11.500Z,8.60
2023-01-21T23:11:39.608Z,15.20
2023-01-21T23:14:08.607Z,15.10
2023-01-21T23:16:35.779Z,12.10
2023-01-21T23:19:03.021Z,10.00
2023-01-21T23:21:30.060Z,10.10
2023-01-21T23:23:56.966Z,10.10
2023-01-21T23:26:24.304Z,10.00
2023-01-21T23:28:55.145Z,9.40
2023-01-21T23:31:23.054Z,8.00
2023-01-21T23:33:51.438Z,10.70
2023-01-21T23:36:18.832Z,10.50
2023-01-21T23:38:45.703Z,10.60
2023-01-21T23:41:17.249Z,9.80
2023-01-21T23:43:44.313Z,10.20
2023-01-21T23:46:16.247Z,8.80
2023-01-21T23:48:43.416Z,8.60
2023-01-21T23:51:12.494Z,10.50
2023-01-21T23:53:39.293Z,8.90
2023-01-21T23:56:13.130Z,9.80
2023-01-21T23:58:40.332Z,10.60
